createdAt,value
2022-11-09T00:00:10.710Z,159.20
2022-11-09T00:01:10.727Z,167.70
2022-11-09T00:02:10.703Z,167.20
2022-11-09T00:03:10.684Z,163.20
2022-11-09T00:04:10.683Z,160.70
2022-11-09T00:05:10.675Z,139.20
2022-11-09T00:06:10.681Z,162.30
2022-11-09T00:07:10.697Z,172.20
2022-11-09T00:08:10.647Z,149.30
2022-11-09T00:09:10.618Z,148.80
2022-11-09T00:10:10.671Z,152.90
2022-11-09T00:11:10.630Z,131.80
2022-11-09T00:12:10.585Z,128.50
2022-11-09T00:13:10.589Z,129.40
2022-11-09T00:14:10.572Z,131.60
2022-11-09T00:15:10.551Z,138.00
2022-11-09T00:16:10.584Z,140.90
2022-11-09T00:17:10.524Z,144.40
2022-11-09T00:18:10.522Z,137.10
2022-11-09T00:19:10.501Z,143.60
2022-11-09T00:20:10.497Z,147.00
2022-11-09T00:21:10.532Z,163.20
2022-11-09T00:22:10.480Z,147.40
2022-11-09T00:23:10.459Z,157.30
2022-11-09T00:24:10.449Z,163.50
2022-11-09T00:25:10.452Z,174.20
2022-11-09T00:26:10.418Z,167.60
2022-11-09T00:27:15.163Z,168.50
2022-11-09T00:28:11.401Z,172.50
2022-11-09T00:29:10.398Z,175.30
2022-11-09T00:30:10.367Z,186.10
2022-11-09T00:31:10.379Z,181.00
2022-11-09T00:32:10.382Z,179.40
2022-11-09T00:33:10.342Z,161.80
2022-11-09T00:34:10.343Z,155.70
2022-11-09T00:35:10.321Z,175.00
2022-11-09T00:36:10.317Z,183.70
2022-11-09T00:37:10.321Z,175.40
2022-11-09T00:38:10.337Z,175.60
2022-11-09T00:39:10.294Z,181.00
2022-11-09T00:40:10.259Z,173.00
2022-11-09T00:41:10.294Z,163.10
2022-11-09T00:42:10.281Z,159.70
2022-11-09T00:43:10.247Z,155.20
2022-11-09T00:44:10.227Z,159.80
2022-11-09T00:45:10.202Z,153.60
2022-11-09T00:46:10.202Z,150.00
2022-11-09T00:47:10.219Z,128.80
2022-11-09T00:48:10.186Z,149.60
2022-11-09T00:49:10.184Z,166.30
2022-11-09T00:50:10.161Z,176.60
2022-11-09T00:51:10.171Z,183.40
2022-11-09T00:52:10.133Z,167.40
2022-11-09T00:53:10.139Z,163.10
2022-11-09T00:54:10.117Z,172.00
2022-11-09T00:55:10.097Z,168.80
2022-11-09T00:56:10.124Z,173.40
2022-11-09T00:57:10.084Z,157.20
2022-11-09T00:58:10.064Z,166.60
2022-11-09T00:59:10.062Z,153.60
2022-11-09T01:00:10.040Z,147.80
2022-11-09T01:01:10.174Z,154.20
2022-11-09T01:02:10.023Z,150.30
2022-11-09T01:03:09.993Z,158.70
2022-11-09T01:04:10.001Z,160.20
2022-11-09T01:05:09.977Z,184.30
2022-11-09T01:06:09.979Z,165.40
2022-11-09T01:07:10.069Z,182.20
2022-11-09T01:08:09.950Z,183.20
2022-11-09T01:09:09.945Z,166.20
2022-11-09T01:10:09.925Z,148.40
2022-11-09T01:11:09.926Z,187.40
2022-11-09T01:12:09.938Z,169.00
2022-11-09T01:13:09.885Z,203.40
2022-11-09T01:14:09.863Z,217.50
2022-11-09T01:15:09.851Z,223.20
2022-11-09T01:16:09.847Z,199.50
2022-11-09T01:17:09.887Z,150.40
2022-11-09T01:18:09.838Z,150.00
2022-11-09T01:19:09.821Z,158.20
2022-11-09T01:20:09.812Z,154.00
2022-11-09T01:21:09.793Z,177.90
2022-11-09T01:22:09.829Z,176.20
2022-11-09T01:23:09.784Z,175.40
2022-11-09T01:24:09.775Z,201.70
2022-11-09T01:25:09.760Z,203.40
2022-11-09T01:26:09.763Z,208.40
2022-11-09T01:27:09.771Z,212.20
2022-11-09T01:28:09.722Z,211.20
2022-11-09T01:29:09.725Z,226.70
2022-11-09T01:30:09.704Z,246.10
2022-11-09T01:31:09.680Z,236.90
2022-11-09T01:32:09.698Z,230.70
2022-11-09T01:33:09.664Z,228.60
2022-11-09T01:34:09.672Z,223.80
2022-11-09T01:35:09.649Z,279.10
2022-11-09T01:36:09.647Z,273.00
2022-11-09T01:37:09.673Z,248.60
2022-11-09T01:38:09.593Z,245.20
2022-11-09T01:39:09.597Z,263.80
2022-11-09T01:40:09.579Z,238.80
2022-11-09T01:41:09.585Z,240.40
2022-11-09T01:42:09.613Z,276.80
2022-11-09T01:43:09.573Z,273.10
2022-11-09T01:44:09.547Z,282.40
2022-11-09T01:45:09.522Z,264.00
2022-11-09T01:46:09.520Z,280.40
2022-11-09T01:47:09.542Z,261.40
2022-11-09T01:48:09.499Z,213.40
2022-11-09T01:49:09.489Z,207.00
2022-11-09T01:50:09.482Z,204.70
2022-11-09T01:51:09.452Z,154.90
2022-11-09T01:52:09.468Z,161.70
2022-11-09T01:53:09.434Z,153.80
2022-11-09T01:54:09.413Z,167.60
2022-11-09T01:55:09.418Z,186.10
2022-11-09T01:56:09.408Z,171.70
2022-11-09T01:57:09.425Z,159.90
2022-11-09T01:58:09.387Z,148.90
2022-11-09T01:59:09.386Z,179.30
2022-11-09T02:00:09.360Z,186.20
2022-11-09T02:01:09.470Z,159.70
2022-11-09T02:02:09.366Z,174.80
2022-11-09T02:03:09.333Z,195.70
2022-11-09T02:04:09.323Z,208.60
2022-11-09T02:05:09.303Z,210.70
2022-11-09T02:06:09.278Z,229.10
2022-11-09T02:07:09.345Z,244.30
2022-11-09T02:08:09.280Z,218.00
2022-11-09T02:09:09.262Z,210.80
2022-11-09T02:10:09.232Z,187.60
2022-11-09T02:11:09.238Z,231.70
2022-11-09T02:12:09.285Z,249.40
2022-11-09T02:13:09.223Z,233.90
2022-11-09T02:14:09.214Z,257.00
2022-11-09T02:15:09.210Z,261.90
2022-11-09T02:16:09.191Z,251.50
2022-11-09T02:17:09.163Z,239.60
2022-11-09T02:18:09.184Z,245.40
2022-11-09T02:19:09.143Z,236.30
2022-11-09T02:20:09.149Z,233.40
2022-11-09T02:21:09.123Z,214.10
2022-11-09T02:22:09.118Z,242.30
2022-11-09T02:23:09.142Z,220.40
2022-11-09T02:24:09.102Z,246.90
2022-11-09T02:25:09.089Z,257.40
2022-11-09T02:26:09.064Z,260.50
2022-11-09T02:27:09.073Z,254.10
2022-11-09T02:28:09.083Z,269.50
2022-11-09T02:29:09.031Z,285.30
2022-11-09T02:30:09.007Z,270.50
2022-11-09T02:31:09.003Z,262.80
2022-11-09T02:32:08.985Z,276.60
2022-11-09T02:33:09.024Z,297.40
2022-11-09T02:34:08.981Z,299.60
2022-11-09T02:35:08.973Z,241.10
2022-11-09T02:36:08.960Z,291.40
2022-11-09T02:37:08.941Z,315.90
2022-11-09T02:38:08.973Z,278.70
2022-11-09T02:39:08.922Z,289.70
2022-11-09T02:40:08.924Z,303.70
2022-11-09T02:41:08.910Z,304.80
2022-11-09T02:42:10.644Z,258.20
2022-11-09T02:43:08.901Z,306.10
2022-11-09T02:44:08.852Z,280.80
2022-11-09T02:45:08.865Z,289.20
2022-11-09T02:46:08.837Z,295.10
2022-11-09T02:47:08.843Z,292.00
2022-11-09T02:48:08.856Z,279.10
2022-11-09T02:49:08.800Z,252.60
2022-11-09T02:50:08.799Z,246.40
2022-11-09T02:51:08.776Z,309.70
2022-11-09T02:52:08.768Z,285.40
2022-11-09T02:53:08.801Z,301.40
2022-11-09T02:54:08.785Z,288.50
2022-11-09T02:55:08.748Z,336.50
2022-11-09T02:56:08.730Z,312.00
2022-11-09T02:57:08.748Z,302.00
2022-11-09T02:58:08.744Z,328.10
2022-11-09T02:59:08.702Z,336.90
2022-11-09T03:00:08.681Z,340.00
2022-11-09T03:01:08.751Z,333.40
2022-11-09T03:02:08.648Z,295.40
2022-11-09T03:03:08.668Z,328.10
2022-11-09T03:04:08.688Z,325.90
2022-11-09T03:05:08.626Z,316.60
2022-11-09T03:06:08.623Z,280.80
2022-11-09T03:07:08.664Z,279.00
2022-11-09T03:08:08.581Z,257.40
2022-11-09T03:09:08.612Z,223.70
2022-11-09T03:10:08.565Z,192.30
2022-11-09T03:11:08.567Z,170.00
2022-11-09T03:12:08.563Z,132.10
2022-11-09T03:13:08.556Z,123.50
2022-11-09T03:14:08.562Z,107.10
2022-11-09T03:15:08.522Z,102.50
2022-11-09T03:16:08.491Z,89.40
2022-11-09T03:17:08.495Z,89.60
2022-11-09T03:18:08.473Z,89.60
2022-11-09T03:19:08.492Z,90.30
2022-11-09T03:20:08.459Z,82.10
2022-11-09T03:21:08.445Z,90.30
2022-11-09T03:22:08.438Z,81.20
2022-11-09T03:23:08.417Z,89.20
2022-11-09T03:24:08.455Z,94.30
2022-11-09T03:25:08.401Z,131.40
2022-11-09T03:26:08.412Z,143.70
2022-11-09T03:27:08.394Z,149.40
2022-11-09T03:28:08.377Z,142.90
2022-11-09T03:29:08.379Z,150.70
2022-11-09T03:30:08.339Z,213.60
2022-11-09T03:31:08.369Z,199.30
2022-11-09T03:32:08.317Z,173.50
2022-11-09T03:33:08.332Z,158.20
2022-11-09T03:34:08.337Z,168.60
2022-11-09T03:35:08.309Z,143.90
2022-11-09T03:36:08.282Z,128.70
2022-11-09T03:37:08.259Z,127.30
2022-11-09T03:38:08.282Z,121.10
2022-11-09T03:39:08.293Z,116.30
2022-11-09T03:40:08.224Z,116.00
2022-11-09T03:41:08.254Z,108.40
2022-11-09T03:42:08.214Z,111.50
2022-11-09T03:43:08.220Z,112.90
2022-11-09T03:44:08.240Z,113.70
2022-11-09T03:45:08.162Z,51.80
2022-11-09T03:46:08.144Z,62.70
2022-11-09T03:47:08.139Z,133.60
2022-11-09T03:48:08.129Z,155.30
2022-11-09T03:49:08.166Z,177.10
2022-11-09T03:50:08.113Z,182.50
2022-11-09T03:51:08.126Z,191.70
2022-11-09T03:52:08.098Z,200.50
2022-11-09T03:53:08.081Z,213.60
2022-11-09T03:54:08.113Z,204.70
2022-11-09T03:55:08.063Z,228.20
2022-11-09T03:56:08.063Z,220.20
2022-11-09T03:57:08.047Z,235.90
2022-11-09T03:58:08.045Z,243.30
2022-11-09T03:59:08.066Z,247.50
2022-11-09T04:00:07.998Z,261.20
2022-11-09T04:01:07.987Z,266.00
2022-11-09T04:02:08.065Z,279.30
2022-11-09T04:03:08.000Z,207.90
2022-11-09T04:04:07.999Z,218.20
2022-11-09T04:05:07.973Z,196.00
2022-11-09T04:06:07.943Z,218.10
2022-11-09T04:07:08.043Z,205.20
2022-11-09T04:08:07.916Z,202.20
2022-11-09T04:09:07.942Z,195.90
2022-11-09T04:10:07.896Z,198.90
2022-11-09T04:11:07.873Z,193.60
2022-11-09T04:12:07.890Z,193.20
2022-11-09T04:13:07.878Z,198.30
2022-11-09T04:14:07.908Z,201.40
2022-11-09T04:15:07.841Z,190.70
2022-11-09T04:16:07.819Z,193.40
2022-11-09T04:17:07.820Z,185.90
2022-11-09T04:18:07.800Z,193.00
2022-11-09T04:19:07.825Z,205.80
2022-11-09T04:20:07.788Z,214.40
2022-11-09T04:21:07.765Z,201.70
2022-11-09T04:22:07.763Z,205.80
2022-11-09T04:23:07.735Z,193.60
2022-11-09T04:24:07.757Z,202.00
2022-11-09T04:25:07.711Z,210.50
2022-11-09T04:26:07.701Z,216.50
2022-11-09T04:27:07.720Z,214.70
2022-11-09T04:28:07.694Z,205.00
2022-11-09T04:29:07.702Z,240.60
2022-11-09T04:30:07.660Z,233.20
2022-11-09T04:31:07.658Z,221.00
2022-11-09T04:32:07.651Z,249.70
2022-11-09T04:33:07.639Z,253.30
2022-11-09T04:34:07.621Z,249.00
2022-11-09T04:35:07.635Z,260.40
2022-11-09T04:36:07.608Z,265.80
2022-11-09T04:37:07.582Z,266.70
2022-11-09T04:38:07.589Z,252.80
2022-11-09T04:39:07.571Z,245.10
2022-11-09T04:40:07.590Z,270.70
2022-11-09T04:41:07.538Z,247.60
2022-11-09T04:42:07.555Z,241.10
2022-11-09T04:43:07.519Z,230.60
2022-11-09T04:44:07.503Z,240.50
2022-11-09T04:45:07.517Z,239.40
2022-11-09T04:46:07.489Z,246.00
2022-11-09T04:47:07.477Z,242.70
2022-11-09T04:48:07.473Z,252.30
2022-11-09T04:49:07.459Z,241.70
2022-11-09T04:50:07.489Z,244.30
2022-11-09T04:51:07.430Z,234.90
2022-11-09T04:52:07.429Z,233.60
2022-11-09T04:53:07.972Z,229.60
2022-11-09T04:54:07.407Z,225.60
2022-11-09T04:55:07.424Z,237.20
2022-11-09T04:56:07.380Z,224.40
2022-11-09T04:57:07.358Z,219.00
2022-11-09T04:58:07.366Z,210.40
2022-11-09T04:59:07.368Z,217.20
2022-11-09T05:00:07.375Z,214.30
2022-11-09T05:01:07.298Z,200.70
2022-11-09T05:02:07.298Z,194.70
2022-11-09T05:03:07.288Z,185.00
2022-11-09T05:04:07.419Z,181.60
2022-11-09T05:05:07.277Z,168.70
2022-11-09T05:06:07.259Z,167.80
2022-11-09T05:07:07.306Z,173.70
2022-11-09T05:08:07.245Z,156.50
2022-11-09T05:09:07.220Z,151.90
2022-11-09T05:10:07.248Z,151.20
2022-11-09T05:11:07.200Z,151.30
2022-11-09T05:12:07.182Z,138.70
2022-11-09T05:13:07.221Z,138.50
2022-11-09T05:14:07.169Z,125.70
2022-11-09T05:15:07.178Z,124.70
2022-11-09T05:16:07.139Z,106.60
2022-11-09T05:17:07.151Z,110.20
2022-11-09T05:18:07.127Z,107.30
2022-11-09T05:19:07.113Z,97.10
2022-11-09T05:20:07.137Z,95.80
2022-11-09T05:21:07.098Z,95.10
2022-11-09T05:22:07.083Z,95.60
2022-11-09T05:23:07.054Z,91.00
2022-11-09T05:24:07.064Z,89.90
2022-11-09T05:25:07.086Z,92.50
2022-11-09T05:26:07.045Z,83.10
2022-11-09T05:27:07.030Z,82.50
2022-11-09T05:28:08.461Z,84.80
2022-11-09T05:29:07.044Z,81.90
2022-11-09T05:30:07.011Z,83.60
2022-11-09T05:31:06.981Z,77.20
2022-11-09T05:32:06.952Z,77.30
2022-11-09T05:33:06.964Z,77.50
2022-11-09T05:34:06.987Z,60.90
2022-11-09T05:35:06.936Z,18.40
2022-11-09T05:36:06.932Z,37.90
2022-11-09T05:37:06.894Z,68.30
2022-11-09T05:38:06.888Z,69.20
2022-11-09T05:39:06.865Z,73.20
2022-11-09T05:40:06.917Z,74.10
2022-11-09T05:41:06.851Z,74.30
2022-11-09T05:42:06.865Z,75.90
2022-11-09T05:43:06.839Z,79.10
2022-11-09T05:44:06.838Z,81.60
2022-11-09T05:45:35.503Z,80.90
2022-11-09T05:46:07.800Z,87.40
2022-11-09T05:47:06.796Z,84.80
2022-11-09T05:48:06.772Z,87.10
2022-11-09T05:49:06.759Z,91.00
2022-11-09T05:50:06.810Z,86.90
2022-11-09T05:51:06.762Z,81.20
2022-11-09T05:52:06.738Z,86.70
2022-11-09T05:53:06.712Z,89.50
2022-11-09T05:54:06.724Z,90.00
2022-11-09T05:55:06.740Z,82.60
2022-11-09T05:56:06.695Z,101.10
2022-11-09T05:57:06.687Z,57.80
2022-11-09T05:58:06.685Z,76.10
2022-11-09T05:59:06.688Z,91.40
2022-11-09T06:00:10.842Z,95.00
2022-11-09T06:01:06.645Z,87.90
2022-11-09T06:02:06.660Z,89.90
2022-11-09T06:03:06.622Z,95.00
2022-11-09T06:04:06.618Z,100.10
2022-11-09T06:05:06.612Z,97.50
2022-11-09T06:06:08.680Z,86.10
2022-11-09T06:07:06.650Z,85.50
2022-11-09T06:08:06.567Z,85.60
2022-11-09T06:09:06.531Z,89.20
2022-11-09T06:10:06.557Z,88.10
2022-11-09T06:11:06.521Z,87.70
2022-11-09T06:12:06.494Z,81.40
2022-11-09T06:13:06.489Z,99.20
2022-11-09T06:14:06.513Z,87.50
2022-11-09T06:15:06.502Z,86.90
2022-11-09T06:16:06.459Z,102.80
2022-11-09T06:17:06.456Z,92.40
2022-11-09T06:18:06.436Z,91.50
2022-11-09T06:19:06.443Z,90.10
2022-11-09T06:20:06.483Z,97.80
2022-11-09T06:21:06.421Z,95.40
2022-11-09T06:22:06.400Z,207.20
2022-11-09T06:23:06.395Z,83.80
2022-11-09T06:24:06.388Z,81.80
2022-11-09T06:25:06.433Z,78.70
2022-11-09T06:26:06.375Z,83.70
2022-11-09T06:27:06.338Z,75.90
2022-11-09T06:28:06.360Z,76.80
2022-11-09T06:29:06.321Z,77.10
2022-11-09T06:30:06.346Z,76.70
2022-11-09T06:31:06.294Z,69.40
2022-11-09T06:32:06.296Z,68.80
2022-11-09T06:33:06.279Z,79.90
2022-11-09T06:34:06.272Z,70.80
2022-11-09T06:35:06.257Z,64.80
2022-11-09T06:36:06.243Z,67.30
2022-11-09T06:37:06.235Z,61.00
2022-11-09T06:38:06.235Z,67.70
2022-11-09T06:39:06.211Z,69.70
2022-11-09T06:40:06.219Z,66.30
2022-11-09T06:41:06.178Z,53.50
2022-11-09T06:42:06.230Z,61.00
2022-11-09T06:43:06.149Z,53.40
2022-11-09T06:44:06.171Z,57.20
2022-11-09T06:45:06.179Z,54.00
2022-11-09T06:46:06.178Z,55.10
2022-11-09T06:47:06.114Z,56.20
2022-11-09T06:48:06.097Z,51.40
2022-11-09T06:49:06.093Z,57.90
2022-11-09T06:50:06.117Z,55.70
2022-11-09T06:51:06.071Z,56.90
2022-11-09T06:52:06.051Z,51.60
2022-11-09T06:53:06.030Z,60.80
2022-11-09T06:54:06.033Z,58.00
2022-11-09T06:55:06.040Z,60.50
2022-11-09T06:56:06.020Z,58.10
2022-11-09T06:57:05.998Z,60.50
2022-11-09T06:58:05.997Z,58.00
2022-11-09T06:59:05.970Z,58.30
2022-11-09T07:00:06.008Z,57.60
2022-11-09T07:01:06.051Z,58.80
2022-11-09T07:02:05.965Z,56.50
2022-11-09T07:03:05.935Z,58.50
2022-11-09T07:04:05.936Z,59.30
2022-11-09T07:05:05.955Z,56.20
2022-11-09T07:06:05.901Z,62.20
2022-11-09T07:07:05.972Z,55.30
2022-11-09T07:08:05.878Z,64.30
2022-11-09T07:09:05.893Z,59.70
2022-11-09T07:10:05.908Z,56.30
2022-11-09T07:11:05.865Z,65.40
2022-11-09T07:12:05.847Z,81.10
2022-11-09T07:13:05.824Z,76.60
2022-11-09T07:14:05.848Z,80.60
2022-11-09T07:15:05.821Z,96.40
2022-11-09T07:16:05.821Z,103.90
2022-11-09T07:17:05.783Z,88.70
2022-11-09T07:18:05.784Z,87.50
2022-11-09T07:19:05.753Z,105.00
2022-11-09T07:20:05.799Z,103.90
2022-11-09T07:21:08.837Z,108.30
2022-11-09T07:22:06.723Z,99.40
2022-11-09T07:23:05.709Z,105.20
2022-11-09T07:24:05.698Z,100.50
2022-11-09T07:25:05.724Z,94.30
2022-11-09T07:26:05.681Z,98.00
2022-11-09T07:27:05.663Z,99.70
2022-11-09T07:28:05.667Z,98.80
2022-11-09T07:29:05.649Z,100.40
2022-11-09T07:30:05.656Z,91.20
2022-11-09T07:31:05.615Z,105.80
2022-11-09T07:32:05.633Z,101.50
2022-11-09T07:33:10.320Z,82.90
2022-11-09T07:34:06.599Z,83.40
2022-11-09T07:35:05.601Z,62.90
2022-11-09T07:36:05.553Z,58.90
2022-11-09T07:37:05.568Z,55.30
2022-11-09T07:38:05.553Z,50.10
2022-11-09T07:39:05.524Z,51.20
2022-11-09T07:40:05.663Z,40.40
2022-11-09T07:41:05.509Z,41.90
2022-11-09T07:42:05.502Z,45.80
2022-11-09T07:43:05.494Z,38.10
2022-11-09T07:44:05.467Z,50.90
2022-11-09T07:45:05.490Z,35.90
2022-11-09T07:46:05.457Z,39.40
2022-11-09T07:47:05.446Z,35.10
2022-11-09T07:48:05.430Z,41.60
2022-11-09T07:49:05.407Z,47.70
2022-11-09T07:50:05.427Z,34.60
2022-11-09T07:51:05.378Z,47.70
2022-11-09T07:52:05.381Z,72.00
2022-11-09T07:53:05.393Z,66.30
2022-11-09T07:54:05.385Z,60.50
2022-11-09T07:55:05.386Z,67.60
2022-11-09T07:56:05.338Z,35.40
2022-11-09T07:57:05.337Z,33.40
2022-11-09T07:58:05.314Z,41.60
2022-11-09T07:59:05.308Z,33.10
2022-11-09T08:00:05.326Z,49.10
2022-11-09T08:01:05.287Z,58.60
2022-11-09T08:02:05.330Z,37.70
2022-11-09T08:03:05.242Z,44.10
2022-11-09T08:04:05.250Z,71.50
2022-11-09T08:05:05.265Z,37.50
2022-11-09T08:06:05.216Z,33.80
2022-11-09T08:07:05.249Z,51.80
2022-11-09T08:08:05.249Z,40.20
2022-11-09T08:09:05.178Z,62.80
2022-11-09T08:10:05.217Z,37.90
2022-11-09T08:11:05.169Z,45.00
2022-11-09T08:12:05.178Z,43.00
2022-11-09T08:13:05.156Z,66.70
2022-11-09T08:14:05.120Z,70.70
2022-11-09T08:15:05.135Z,44.90
2022-11-09T08:16:05.129Z,67.30
2022-11-09T08:17:05.078Z,63.50
2022-11-09T08:18:05.088Z,69.80
2022-11-09T08:19:05.070Z,71.80
2022-11-09T08:20:05.067Z,68.50
2022-11-09T08:21:05.090Z,66.90
2022-11-09T08:22:05.057Z,73.10
2022-11-09T08:23:05.234Z,81.00
2022-11-09T08:24:05.019Z,75.80
2022-11-09T08:25:05.013Z,93.50
2022-11-09T08:26:05.053Z,76.80
2022-11-09T08:27:05.000Z,76.00
2022-11-09T08:28:04.967Z,80.90
2022-11-09T08:29:04.945Z,89.30
2022-11-09T08:30:04.957Z,80.20
2022-11-09T08:31:04.971Z,77.30
2022-11-09T08:32:04.942Z,77.70
2022-11-09T08:33:04.907Z,64.50
2022-11-09T08:34:04.931Z,63.50
2022-11-09T08:35:04.894Z,56.40
2022-11-09T08:36:04.927Z,59.80
2022-11-09T08:37:04.873Z,53.90
2022-11-09T08:38:04.846Z,47.20
2022-11-09T08:39:04.849Z,42.40
2022-11-09T08:40:04.816Z,42.90
2022-11-09T08:41:09.268Z,61.20
2022-11-09T08:42:05.812Z,43.10
2022-11-09T08:43:04.778Z,70.50
2022-11-09T08:44:04.764Z,86.00
2022-11-09T08:45:04.785Z,79.50
2022-11-09T08:46:04.764Z,48.40
2022-11-09T08:47:04.761Z,77.80
2022-11-09T08:48:04.763Z,71.30
2022-11-09T08:49:04.738Z,91.00
2022-11-09T08:50:04.726Z,86.60
2022-11-09T08:51:04.739Z,76.40
2022-11-09T08:52:04.699Z,74.80
2022-11-09T08:53:04.677Z,85.30
2022-11-09T08:54:04.685Z,67.40
2022-11-09T08:55:04.665Z,86.90
2022-11-09T08:56:04.677Z,87.60
2022-11-09T08:57:04.638Z,84.60
2022-11-09T08:58:04.643Z,71.40
2022-11-09T08:59:04.634Z,74.20
2022-11-09T09:00:04.619Z,97.20
2022-11-09T09:01:04.623Z,95.30
2022-11-09T09:02:04.679Z,96.60
2022-11-09T09:03:04.579Z,77.70
2022-11-09T09:04:04.554Z,105.90
2022-11-09T09:05:04.543Z,109.90
2022-11-09T09:06:04.559Z,103.50
2022-11-09T09:07:04.611Z,96.10
2022-11-09T09:08:04.522Z,94.70
2022-11-09T09:09:04.501Z,90.90
2022-11-09T09:10:04.525Z,86.20
2022-11-09T09:11:04.500Z,86.20
2022-11-09T09:12:04.452Z,88.00
2022-11-09T09:13:04.475Z,83.80
2022-11-09T09:14:04.446Z,81.30
2022-11-09T09:15:04.449Z,76.40
2022-11-09T09:16:04.451Z,66.90
2022-11-09T09:17:04.429Z,50.20
2022-11-09T09:18:04.415Z,42.90
2022-11-09T09:19:04.379Z,35.90
2022-11-09T09:20:04.358Z,30.60
2022-11-09T09:21:04.392Z,31.00
2022-11-09T09:22:04.338Z,28.30
2022-11-09T09:23:04.330Z,26.20
2022-11-09T09:24:04.326Z,25.50
2022-11-09T09:25:04.315Z,30.10
2022-11-09T09:26:04.390Z,27.00
2022-11-09T09:27:04.296Z,25.60
2022-11-09T09:28:04.277Z,36.20
2022-11-09T09:29:04.278Z,27.90
2022-11-09T09:30:04.245Z,49.00
2022-11-09T09:31:04.292Z,59.70
2022-11-09T09:32:04.245Z,64.40
2022-11-09T09:33:04.221Z,75.80
2022-11-09T09:34:04.217Z,67.90
2022-11-09T09:35:04.204Z,61.00
2022-11-09T09:36:04.247Z,62.60
2022-11-09T09:37:04.188Z,69.50
2022-11-09T09:38:04.178Z,71.80
2022-11-09T09:39:04.160Z,71.20
2022-11-09T09:40:04.142Z,68.60
2022-11-09T09:41:04.151Z,60.00
2022-11-09T09:42:04.124Z,59.90
2022-11-09T09:43:04.106Z,55.00
2022-11-09T09:44:04.102Z,62.90
2022-11-09T09:45:04.114Z,58.70
2022-11-09T09:46:04.107Z,42.70
2022-11-09T09:47:04.064Z,33.80
2022-11-09T09:48:04.064Z,38.30
2022-11-09T09:49:04.038Z,35.00
2022-11-09T09:50:04.081Z,37.10
2022-11-09T09:51:04.072Z,38.10
2022-11-09T09:52:04.032Z,39.60
2022-11-09T09:53:23.180Z,39.30
2022-11-09T09:54:04.983Z,39.50
2022-11-09T09:55:03.983Z,34.50
2022-11-09T09:56:03.996Z,33.60
2022-11-09T09:57:03.947Z,32.10
2022-11-09T09:58:03.930Z,34.90
2022-11-09T09:59:03.935Z,37.60
2022-11-09T10:00:03.916Z,40.20
2022-11-09T10:01:03.901Z,43.40
2022-11-09T10:02:03.926Z,60.80
2022-11-09T10:03:03.891Z,63.20
2022-11-09T10:04:03.948Z,85.30
2022-11-09T10:05:03.861Z,107.60
2022-11-09T10:06:03.847Z,100.60
2022-11-09T10:07:03.924Z,104.30
2022-11-09T10:08:03.829Z,129.40
2022-11-09T10:09:03.818Z,138.20
2022-11-09T10:10:03.797Z,157.00
2022-11-09T10:11:03.812Z,158.50
2022-11-09T10:12:03.837Z,148.60
2022-11-09T10:13:03.759Z,190.90
2022-11-09T10:14:03.770Z,184.30
2022-11-09T10:15:03.754Z,211.30
2022-11-09T10:16:03.779Z,217.10
2022-11-09T10:17:03.722Z,189.70
2022-11-09T10:18:03.713Z,190.40
2022-11-09T10:19:03.705Z,169.20
2022-11-09T10:20:03.678Z,184.70
2022-11-09T10:21:03.690Z,209.90
2022-11-09T10:22:03.715Z,208.50
2022-11-09T10:23:03.673Z,208.60
2022-11-09T10:24:03.662Z,226.80
2022-11-09T10:25:32.125Z,241.00
2022-11-09T10:26:06.892Z,262.70
2022-11-09T10:27:03.628Z,279.20
2022-11-09T10:28:03.582Z,299.10
2022-11-09T10:29:16.219Z,320.00
2022-11-09T10:30:04.550Z,348.50
2022-11-09T10:31:03.563Z,368.10
2022-11-09T10:32:03.581Z,363.40
2022-11-09T10:33:03.552Z,362.50
2022-11-09T10:34:03.517Z,374.30
2022-11-09T10:35:03.550Z,374.10
2022-11-09T10:36:07.993Z,371.40
2022-11-09T10:37:03.530Z,376.70
2022-11-09T10:38:03.486Z,368.80
2022-11-09T10:39:03.482Z,375.90
2022-11-09T10:40:03.455Z,360.10
2022-11-09T10:41:03.458Z,329.20
2022-11-09T10:42:03.466Z,341.90
2022-11-09T10:43:03.419Z,193.70
2022-11-09T10:44:03.408Z,197.60
2022-11-09T10:45:03.415Z,179.20
2022-11-09T10:46:03.370Z,195.80
2022-11-09T10:47:03.417Z,178.30
2022-11-09T10:48:03.361Z,188.20
2022-11-09T10:49:03.366Z,184.10
2022-11-09T10:50:03.337Z,208.30
2022-11-09T10:51:03.350Z,210.50
2022-11-09T10:52:03.343Z,236.90
2022-11-09T10:53:03.312Z,277.10
2022-11-09T10:54:03.277Z,278.10
2022-11-09T10:55:03.289Z,288.40
2022-11-09T10:56:03.278Z,313.30
2022-11-09T10:57:07.048Z,304.80
2022-11-09T10:58:03.272Z,313.20
2022-11-09T10:59:03.249Z,289.80
2022-11-09T11:00:03.258Z,266.80
2022-11-09T11:01:03.224Z,250.80
2022-11-09T11:02:03.275Z,226.80
2022-11-09T11:03:03.200Z,238.60
2022-11-09T11:04:03.178Z,226.40
2022-11-09T11:05:03.221Z,215.10
2022-11-09T11:06:03.179Z,243.80
2022-11-09T11:07:03.230Z,215.20
2022-11-09T11:08:03.150Z,186.10
2022-11-09T11:09:03.134Z,163.60
2022-11-09T11:10:03.122Z,203.10
2022-11-09T11:11:27.326Z,245.40
2022-11-09T11:12:04.136Z,237.00
2022-11-09T11:13:03.070Z,155.40
2022-11-09T11:14:03.075Z,114.20
2022-11-09T11:15:03.046Z,124.50
2022-11-09T11:16:03.039Z,99.70
2022-11-09T11:17:03.062Z,89.10
2022-11-09T11:18:03.026Z,93.70
2022-11-09T11:19:03.030Z,104.50
2022-11-09T11:20:02.999Z,102.00
2022-11-09T11:21:02.999Z,137.60
2022-11-09T11:22:03.036Z,127.80
2022-11-09T11:23:02.956Z,126.70
2022-11-09T11:24:02.960Z,133.10
2022-11-09T11:25:02.947Z,140.30
2022-11-09T11:26:02.934Z,148.70
2022-11-09T11:27:06.616Z,121.70
2022-11-09T11:28:03.928Z,130.00
2022-11-09T11:29:02.908Z,114.10
2022-11-09T11:30:02.879Z,119.80
2022-11-09T11:31:02.873Z,115.70
2022-11-09T11:32:02.904Z,108.20
2022-11-09T11:33:02.876Z,103.40
2022-11-09T11:34:02.916Z,101.50
2022-11-09T11:35:02.882Z,91.80
2022-11-09T11:36:02.821Z,91.30
2022-11-09T11:37:02.849Z,105.40
2022-11-09T11:38:02.800Z,125.80
2022-11-09T11:39:02.818Z,146.40
2022-11-09T11:40:02.789Z,88.40
2022-11-09T11:41:02.780Z,200.50
2022-11-09T11:42:02.785Z,199.60
2022-11-09T11:43:02.764Z,79.10
2022-11-09T11:44:02.709Z,147.30
2022-11-09T11:45:33.483Z,116.30
2022-11-09T11:46:03.696Z,50.60
2022-11-09T11:47:02.725Z,78.10
2022-11-09T11:48:02.675Z,69.60
2022-11-09T11:49:02.675Z,34.90
2022-11-09T11:50:02.679Z,67.70
2022-11-09T11:51:02.639Z,35.40
2022-11-09T11:52:02.659Z,75.00
2022-11-09T11:53:02.635Z,56.00
2022-11-09T11:54:02.623Z,58.30
2022-11-09T11:55:02.610Z,238.90
2022-11-09T11:56:02.616Z,185.50
2022-11-09T11:57:02.589Z,233.90
2022-11-09T11:58:02.577Z,251.90
2022-11-09T11:59:02.555Z,196.50
2022-11-09T12:00:02.546Z,763.50
2022-11-09T12:01:02.576Z,999.90
2022-11-09T12:02:02.533Z,999.90
2022-11-09T12:03:02.596Z,999.90
2022-11-09T12:04:02.493Z,999.90
2022-11-09T12:05:02.505Z,999.90
2022-11-09T12:06:02.484Z,999.90
2022-11-09T12:07:02.577Z,999.90
2022-11-09T12:08:02.454Z,999.90
2022-11-09T12:09:02.448Z,999.90
2022-11-09T12:10:02.442Z,999.90
2022-11-09T12:11:02.435Z,999.90
2022-11-09T12:12:02.442Z,999.90
2022-11-09T12:13:02.406Z,999.90
2022-11-09T12:14:02.398Z,999.90
2022-11-09T12:15:02.386Z,999.90
2022-11-09T12:16:02.406Z,999.90
2022-11-09T12:17:02.365Z,999.90
2022-11-09T12:18:02.332Z,999.90
2022-11-09T12:19:02.321Z,999.90
2022-11-09T12:20:02.319Z,999.90
2022-11-09T12:21:02.345Z,611.70
2022-11-09T12:22:02.295Z,999.90
2022-11-09T12:23:02.282Z,999.90
2022-11-09T12:24:02.264Z,999.90
2022-11-09T12:25:02.251Z,739.40
2022-11-09T12:26:02.239Z,999.90
2022-11-09T12:27:25.535Z,999.90
2022-11-09T12:28:03.222Z,999.90
2022-11-09T12:29:02.216Z,999.90
2022-11-09T12:30:02.207Z,999.90
2022-11-09T12:31:02.178Z,999.90
2022-11-09T12:32:02.202Z,999.90
2022-11-09T12:33:02.168Z,999.90
2022-11-09T12:34:02.174Z,999.90
2022-11-09T12:35:02.154Z,999.90
2022-11-09T12:36:02.198Z,999.90
2022-11-09T12:37:02.140Z,999.90